createdAt,value
2023-10-10T00:00:03.098Z,96738.03
2023-10-10T00:01:04.574Z,96733.00
2023-10-10T00:02:06.179Z,96727.16
2023-10-10T00:03:07.821Z,96729.81
2023-10-10T00:04:09.384Z,96736.22
2023-10-10T00:05:10.890Z,96725.59
2023-10-10T00:06:12.412Z,96736.50
2023-10-10T00:07:13.943Z,96733.06
2023-10-10T00:08:15.407Z,96737.56
2023-10-10T00:09:18.926Z,96731.47
2023-10-10T00:10:21.859Z,96735.72
2023-10-10T00:11:23.390Z,96744.78
2023-10-10T00:12:24.897Z,96735.22
2023-10-10T00:13:26.382Z,96732.56
2023-10-10T00:14:27.881Z,96732.84
2023-10-10T00:15:29.442Z,96733.09
2023-10-10T00:16:31.057Z,96731.22
2023-10-10T00:17:32.736Z,96736.28
2023-10-10T00:18:34.293Z,96725.41
2023-10-10T00:19:35.794Z,96723.84
2023-10-10T00:20:37.299Z,96725.41
2023-10-10T00:21:38.773Z,96731.81
2023-10-10T00:22:40.250Z,96724.91
2023-10-10T00:23:41.745Z,96729.44
2023-10-10T00:24:43.231Z,96727.06
2023-10-10T00:25:44.741Z,96719.34
2023-10-10T00:26:46.224Z,96722.00
2023-10-10T00:27:47.870Z,96719.34
2023-10-10T00:28:49.350Z,96716.69
2023-10-10T00:29:50.827Z,96718.84
2023-10-10T00:30:52.315Z,96715.38
2023-10-10T00:31:53.827Z,96715.66
2023-10-10T00:32:55.414Z,96720.97
2023-10-10T00:33:56.934Z,96715.97
2023-10-10T00:34:58.506Z,96717.81
2023-10-10T00:35:59.970Z,96717.31
2023-10-10T00:37:01.431Z,96710.41
2023-10-10T00:38:02.941Z,96711.47
2023-10-10T00:39:04.473Z,96710.97
2023-10-10T00:40:05.975Z,96712.06
2023-10-10T00:41:07.522Z,96710.47
2023-10-10T00:42:09.028Z,96714.22
2023-10-10T00:43:11.885Z,96716.06
2023-10-10T00:44:13.415Z,96714.50
2023-10-10T00:45:14.876Z,96707.56
2023-10-10T00:46:16.353Z,96715.81
2023-10-10T00:47:17.920Z,96710.00
2023-10-10T00:48:19.511Z,96720.63
2023-10-10T00:49:21.070Z,96711.06
2023-10-10T00:50:22.639Z,96709.19
2023-10-10T00:51:24.117Z,96707.63
2023-10-10T00:52:25.596Z,96707.09
2023-10-10T00:53:27.103Z,96708.16
2023-10-10T00:54:30.250Z,96712.97
2023-10-10T00:55:31.709Z,96709.53
2023-10-10T00:56:33.209Z,96704.47
2023-10-10T00:57:38.324Z,96705.56
2023-10-10T00:58:39.820Z,96708.50
2023-10-10T00:59:41.331Z,96704.25
2023-10-10T01:00:42.836Z,96712.53
2023-10-10T01:01:44.377Z,96702.94
2023-10-10T01:02:45.975Z,96706.69
2023-10-10T01:03:47.776Z,96703.53
2023-10-10T01:04:49.388Z,96704.31
2023-10-10T01:05:50.852Z,96705.38
2023-10-10T01:06:52.330Z,96702.72
2023-10-10T01:07:53.829Z,96703.81
2023-10-10T01:08:55.362Z,96703.28
2023-10-10T01:09:56.864Z,96710.47
2023-10-10T01:11:59.866Z,96708.38
2023-10-10T01:13:01.338Z,96704.94
2023-10-10T01:14:02.895Z,96708.94
2023-10-10T01:15:04.451Z,96706.56
2023-10-10T01:16:05.915Z,96714.03
2023-10-10T01:17:08.813Z,96712.44
2023-10-10T01:18:10.476Z,96715.38
2023-10-10T01:19:12.110Z,96711.41
2023-10-10T01:20:13.658Z,96707.16
2023-10-10T01:21:15.147Z,96711.97
2023-10-10T01:22:16.617Z,96706.94
2023-10-10T01:23:18.195Z,96705.63
2023-10-10T01:24:19.738Z,96712.03
2023-10-10T01:25:21.239Z,96706.97
2023-10-10T01:26:22.870Z,96709.41
2023-10-10T01:28:42.616Z,96703.88
2023-10-10T01:29:44.233Z,96709.72
2023-10-10T01:30:45.716Z,96707.34
2023-10-10T01:31:47.224Z,96711.88
2023-10-10T01:32:48.733Z,96711.34
2023-10-10T01:33:50.217Z,96714.00
2023-10-10T01:34:51.740Z,96717.72
2023-10-10T01:35:53.192Z,96712.41
2023-10-10T01:36:54.734Z,96716.44
2023-10-10T01:37:56.572Z,96715.38
2023-10-10T01:38:58.241Z,96717.22
2023-10-10T01:40:00.172Z,96713.78
2023-10-10T01:41:01.687Z,96720.69
2023-10-10T01:42:03.179Z,96718.31
2023-10-10T01:43:04.817Z,96713.00
2023-10-10T01:44:06.391Z,96708.47
2023-10-10T01:45:08.022Z,96711.13
2023-10-10T01:46:09.594Z,96707.66
2023-10-10T01:47:11.146Z,96709.53
2023-10-10T01:48:12.759Z,96712.19
2023-10-10T01:49:14.441Z,96705.28
2023-10-10T01:50:16.307Z,96697.31
2023-10-10T01:51:17.791Z,96707.16
2023-10-10T01:52:19.277Z,96701.06
2023-10-10T01:53:20.791Z,96706.66
2023-10-10T01:54:22.310Z,96710.09
2023-10-10T01:55:23.806Z,96710.09
2023-10-10T01:56:25.328Z,96709.31
2023-10-10T01:57:26.806Z,96700.81
2023-10-10T01:58:28.287Z,96697.88
2023-10-10T01:59:29.824Z,96709.31
2023-10-10T02:00:31.446Z,96708.78
2023-10-10T02:01:33.064Z,96705.31
2023-10-10T02:02:34.685Z,96706.41
2023-10-10T02:03:36.406Z,96699.47
2023-10-10T02:04:38.040Z,96706.66
2023-10-10T02:05:39.536Z,96699.78
2023-10-10T02:06:40.999Z,96705.09
2023-10-10T02:07:42.485Z,96705.38
2023-10-10T02:08:43.944Z,96699.50
2023-10-10T02:09:45.421Z,96707.25
2023-10-10T02:10:47.005Z,96704.03
2023-10-10T02:11:48.472Z,96697.13
2023-10-10T02:12:49.949Z,96701.66
2023-10-10T02:13:51.440Z,96706.19
2023-10-10T02:14:59.670Z,96704.84
2023-10-10T02:16:01.187Z,96713.91
2023-10-10T02:17:02.712Z,96705.41
2023-10-10T02:18:04.212Z,96702.25
2023-10-10T02:19:05.756Z,96707.03
2023-10-10T02:20:07.296Z,96701.22
2023-10-10T02:21:08.835Z,96698.84
2023-10-10T02:22:10.311Z,96705.19
2023-10-10T02:23:11.810Z,96697.53
2023-10-10T02:24:13.304Z,96699.66
2023-10-10T02:25:14.803Z,96702.31
2023-10-10T02:26:16.339Z,96695.69
2023-10-10T02:27:17.837Z,96702.88
2023-10-10T02:28:19.315Z,96701.25
2023-10-10T02:29:20.809Z,96700.75
2023-10-10T02:30:22.305Z,96705.28
2023-10-10T02:31:23.919Z,96698.38
2023-10-10T02:32:25.486Z,96702.09
2023-10-10T02:33:27.075Z,96697.06
2023-10-10T02:34:28.548Z,96699.72
2023-10-10T02:35:30.009Z,96706.09
2023-10-10T02:36:31.576Z,96709.03
2023-10-10T02:37:33.339Z,96715.44
2023-10-10T02:38:34.979Z,96698.69
2023-10-10T02:39:36.519Z,96705.06
2023-10-10T02:40:38.123Z,96704.28
2023-10-10T02:41:39.960Z,96702.94
2023-10-10T02:42:41.624Z,96704.81
2023-10-10T02:43:46.049Z,96706.97
2023-10-10T02:44:47.587Z,96708.84
2023-10-10T02:45:49.124Z,96707.22
2023-10-10T02:46:50.639Z,96706.72
2023-10-10T02:47:52.205Z,96706.97
2023-10-10T02:48:53.766Z,96708.84
2023-10-10T02:49:55.249Z,96713.63
2023-10-10T02:50:56.738Z,96716.56
2023-10-10T02:51:58.633Z,96713.13
2023-10-10T02:53:00.155Z,96709.94
2023-10-10T02:54:01.690Z,96709.16
2023-10-10T02:55:03.236Z,96713.69
2023-10-10T02:56:04.733Z,96704.38
2023-10-10T02:57:06.287Z,96709.97
2023-10-10T02:58:07.759Z,96715.28
2023-10-10T02:59:09.285Z,96720.56
2023-10-10T03:00:10.766Z,96712.91
2023-10-10T03:01:12.222Z,96718.50
2023-10-10T03:02:13.852Z,96718.75
2023-10-10T03:03:15.388Z,96717.19
2023-10-10T03:04:16.996Z,96715.56
2023-10-10T03:05:18.760Z,96715.56
2023-10-10T03:06:20.219Z,96702.56
2023-10-10T03:07:21.727Z,96715.06
2023-10-10T03:08:23.393Z,96721.44
2023-10-10T03:09:24.914Z,96713.75
2023-10-10T03:10:26.492Z,96720.94
2023-10-10T03:11:28.017Z,96715.88
2023-10-10T03:12:29.552Z,96722.25
2023-10-10T03:13:31.061Z,96715.63
2023-10-10T03:14:32.587Z,96709.25
2023-10-10T03:15:34.161Z,96717.50
2023-10-10T03:16:35.770Z,96716.97
2023-10-10T03:17:37.528Z,96718.03
2023-10-10T03:18:39.106Z,96725.19
2023-10-10T03:19:40.604Z,96718.28
2023-10-10T03:20:42.136Z,96722.03
2023-10-10T03:21:43.702Z,96715.38
2023-10-10T03:22:45.243Z,96728.38
2023-10-10T03:23:46.819Z,96723.34
2023-10-10T03:24:48.297Z,96719.88
2023-10-10T03:25:50.880Z,96718.31
2023-10-10T03:26:52.417Z,96720.94
2023-10-10T03:27:53.958Z,96719.34
2023-10-10T03:28:55.432Z,96727.31
2023-10-10T03:29:56.948Z,96721.22
2023-10-10T03:30:58.454Z,96729.44
2023-10-10T03:31:59.999Z,96724.13
2023-10-10T03:33:01.592Z,96720.69
2023-10-10T03:34:03.182Z,96725.22
2023-10-10T03:35:04.687Z,96728.66
2023-10-10T03:36:06.246Z,96729.69
2023-10-10T03:37:07.732Z,96727.34
2023-10-10T03:38:09.231Z,96724.69
2023-10-10T03:39:10.712Z,96724.69
2023-10-10T03:40:12.151Z,96727.59
2023-10-10T03:41:13.611Z,96726.81
2023-10-10T03:42:15.119Z,96728.66
2023-10-10T03:43:16.604Z,96730.53
2023-10-10T03:44:18.079Z,96727.88
2023-10-10T03:45:19.596Z,96731.59
2023-10-10T03:46:21.121Z,96726.56
2023-10-10T03:47:22.675Z,96726.81
2023-10-10T03:48:24.252Z,96725.25
2023-10-10T03:49:25.746Z,96724.97
2023-10-10T03:50:27.318Z,96722.59
2023-10-10T03:51:28.792Z,96731.59
2023-10-10T03:52:30.312Z,96725.53
2023-10-10T03:53:31.875Z,96729.22
2023-10-10T03:54:33.527Z,96726.84
2023-10-10T03:55:35.036Z,96730.56
2023-10-10T03:56:36.770Z,96729.78
2023-10-10T03:57:38.282Z,96729.00
2023-10-10T03:58:39.751Z,96731.09
2023-10-10T03:59:41.276Z,96723.44
2023-10-10T04:00:42.807Z,96723.44
2023-10-10T04:01:44.330Z,96725.56
2023-10-10T04:02:45.937Z,96725.56
2023-10-10T04:03:47.634Z,96725.81
2023-10-10T04:04:49.188Z,96725.81
2023-10-10T04:05:50.631Z,96725.03
2023-10-10T04:06:52.089Z,96720.00
2023-10-10T04:07:53.557Z,96727.16
2023-10-10T04:08:55.120Z,96734.59
2023-10-10T04:09:56.622Z,96720.50
2023-10-10T04:10:58.090Z,96724.25
2023-10-10T04:11:59.563Z,96729.81
2023-10-10T04:13:01.101Z,96727.41
2023-10-10T04:14:02.675Z,96726.63
2023-10-10T04:15:04.226Z,96718.94
2023-10-10T04:16:05.782Z,96732.19
2023-10-10T04:17:07.642Z,96726.38
2023-10-10T04:18:09.791Z,96719.19
2023-10-10T04:19:14.558Z,96729.28
2023-10-10T04:20:16.115Z,96731.41
2023-10-10T04:21:17.732Z,96733.28
2023-10-10T04:22:19.235Z,96735.13
2023-10-10T04:23:20.770Z,96738.06
2023-10-10T04:24:22.255Z,96735.66
2023-10-10T04:25:23.723Z,96730.34
2023-10-10T04:26:25.264Z,96730.66
2023-10-10T04:27:26.797Z,96726.41
2023-10-10T04:28:28.344Z,96730.91
2023-10-10T04:29:30.029Z,96726.66
2023-10-10T04:30:31.589Z,96725.09
2023-10-10T04:31:33.162Z,96719.25
2023-10-10T04:32:34.764Z,96729.84
2023-10-10T04:33:36.301Z,96725.59
2023-10-10T04:34:37.813Z,96731.16
2023-10-10T04:35:39.287Z,96724.28
2023-10-10T04:36:40.763Z,96731.47
2023-10-10T04:37:42.296Z,96725.63
2023-10-10T04:38:43.845Z,96724.03
2023-10-10T04:39:45.399Z,96730.13
2023-10-10T04:40:46.862Z,96734.88
2023-10-10T04:41:48.327Z,96723.50
2023-10-10T04:42:49.830Z,96721.09
2023-10-10T04:43:53.033Z,96722.19
2023-10-10T04:44:56.206Z,96723.22
2023-10-10T04:45:57.697Z,96719.00
2023-10-10T04:46:59.179Z,96725.34
2023-10-10T04:48:00.733Z,96717.66
2023-10-10T04:49:02.331Z,96720.31
2023-10-10T04:50:03.857Z,96719.00
2023-10-10T04:51:05.357Z,96719.00
2023-10-10T04:52:06.900Z,96719.25
2023-10-10T04:53:08.429Z,96710.53
2023-10-10T04:54:09.931Z,96717.69
2023-10-10T04:55:11.430Z,96716.91
2023-10-10T04:56:12.905Z,96711.88
2023-10-10T04:57:14.413Z,96715.56
2023-10-10T04:58:15.930Z,96715.84
2023-10-10T04:59:17.471Z,96719.53
2023-10-10T05:00:19.009Z,96721.63
2023-10-10T05:01:20.506Z,96720.84
2023-10-10T05:02:22.071Z,96726.41
2023-10-10T05:03:23.672Z,96725.34
2023-10-10T05:04:27.182Z,96724.81
2023-10-10T05:05:28.822Z,96725.88
2023-10-10T05:06:30.334Z,96731.44
2023-10-10T05:07:31.840Z,96724.56
2023-10-10T05:08:33.444Z,96729.03
2023-10-10T05:09:34.989Z,96731.97
2023-10-10T05:10:36.534Z,96725.06
2023-10-10T05:11:38.034Z,96734.09
2023-10-10T05:12:39.548Z,96739.66
2023-10-10T05:13:41.153Z,96732.75
2023-10-10T05:14:42.697Z,96736.47
2023-10-10T05:15:44.199Z,96734.88
2023-10-10T05:16:45.665Z,96727.22
2023-10-10T05:17:47.168Z,96726.41
2023-10-10T05:18:50.632Z,96727.47
2023-10-10T05:19:52.386Z,96733.03
2023-10-10T05:20:53.917Z,96726.94
2023-10-10T05:21:55.432Z,96735.16
2023-10-10T05:22:56.994Z,96734.34
2023-10-10T05:23:58.455Z,96732.75
2023-10-10T05:25:02.002Z,96735.41
2023-10-10T05:26:03.606Z,96740.97
2023-10-10T05:27:05.154Z,96743.91
2023-10-10T05:28:06.597Z,96742.28
2023-10-10T05:29:08.129Z,96746.00
2023-10-10T05:30:09.639Z,96744.41
2023-10-10T05:31:11.333Z,96736.72
2023-10-10T05:32:12.925Z,96739.66
2023-10-10T05:33:14.539Z,96738.84
2023-10-10T05:34:16.229Z,96738.03
2023-10-10T05:35:18.041Z,96740.94
2023-10-10T05:36:19.646Z,96741.75
2023-10-10T05:37:21.175Z,96743.84
2023-10-10T05:38:22.668Z,96738.84
2023-10-10T05:39:24.159Z,96742.28
2023-10-10T05:40:25.660Z,96738.31
2023-10-10T05:41:27.183Z,96742.00
2023-10-10T05:42:28.720Z,96739.63
2023-10-10T05:43:30.189Z,96744.91
2023-10-10T05:44:31.740Z,96742.25
2023-10-10T05:45:33.266Z,96739.91
2023-10-10T05:46:34.820Z,96743.59
2023-10-10T05:47:36.415Z,96747.31
2023-10-10T05:48:37.984Z,96746.78
2023-10-10T05:49:39.460Z,96749.13
2023-10-10T05:50:40.986Z,96754.72
2023-10-10T05:51:42.657Z,96754.97
2023-10-10T05:52:44.151Z,96746.22
2023-10-10T05:53:45.763Z,96750.72
2023-10-10T05:54:47.218Z,96748.31
2023-10-10T05:55:48.677Z,96758.66
2023-10-10T05:56:50.174Z,96744.91
2023-10-10T05:57:51.746Z,96752.06
2023-10-10T05:58:55.069Z,96764.50
2023-10-10T05:59:56.789Z,96759.47
2023-10-10T06:00:58.284Z,96758.66
2023-10-10T06:01:59.782Z,96763.16
2023-10-10T06:03:01.416Z,96761.81
2023-10-10T06:04:03.007Z,96770.56
2023-10-10T06:05:04.574Z,96771.38
2023-10-10T06:06:06.068Z,96762.91
2023-10-10T06:07:07.531Z,96773.75
2023-10-10T06:08:09.022Z,96773.47
2023-10-10T06:09:10.498Z,96769.22
2023-10-10T06:10:12.000Z,96765.78
2023-10-10T06:11:13.495Z,96766.59
2023-10-10T06:12:15.450Z,96771.34
2023-10-10T06:13:17.190Z,96771.34
2023-10-10T06:14:18.857Z,96771.34
2023-10-10T06:15:20.626Z,96775.06
2023-10-10T06:16:22.168Z,96772.41
2023-10-10T06:17:23.772Z,96768.94
2023-10-10T06:18:25.368Z,96772.41
2023-10-10T06:19:26.900Z,96771.59
2023-10-10T06:20:28.478Z,96775.31
2023-10-10T06:21:29.960Z,96770.03
2023-10-10T06:22:31.445Z,96764.72
2023-10-10T06:23:32.892Z,96767.38
2023-10-10T06:24:34.409Z,96770.03
2023-10-10T06:25:35.861Z,96774.25
2023-10-10T06:26:37.367Z,96775.31
2023-10-10T06:27:39.314Z,96761.28
2023-10-10T06:28:40.852Z,96769.25
2023-10-10T06:29:42.383Z,96778.75
2023-10-10T06:30:43.888Z,96773.47
2023-10-10T06:31:45.439Z,96774.25
2023-10-10T06:32:47.473Z,96773.47
2023-10-10T06:33:49.235Z,96780.34
2023-10-10T06:34:51.115Z,96774.25
2023-10-10T06:35:52.646Z,96781.94
2023-10-10T06:36:54.157Z,96785.66
2023-10-10T06:37:55.701Z,96787.22
2023-10-10T06:38:57.231Z,96787.22
2023-10-10T06:39:58.769Z,96784.59
2023-10-10T06:41:00.256Z,96786.97
2023-10-10T06:42:01.698Z,96791.19
2023-10-10T06:43:03.466Z,96788.56
2023-10-10T06:44:07.136Z,96791.19
2023-10-10T06:45:08.668Z,96790.16
2023-10-10T06:46:10.210Z,96792.81
2023-10-10T06:47:11.739Z,96797.03
2023-10-10T06:48:13.285Z,96792.56
2023-10-10T06:49:14.771Z,96793.34
2023-10-10T06:50:16.304Z,96793.34
2023-10-10T06:51:17.818Z,96794.91
2023-10-10T06:52:19.423Z,96790.44
2023-10-10T06:53:21.324Z,96792.00
2023-10-10T06:54:22.808Z,96793.88
2023-10-10T06:55:24.271Z,96796.25
2023-10-10T06:56:25.802Z,96795.97
2023-10-10T06:57:27.277Z,96795.19
2023-10-10T06:58:28.928Z,96796.81
2023-10-10T06:59:30.777Z,96802.63
2023-10-10T07:00:32.693Z,96802.38
2023-10-10T07:01:34.163Z,96803.16
2023-10-10T07:02:35.701Z,96794.16
2023-10-10T07:03:37.292Z,96798.41
2023-10-10T07:04:38.874Z,96803.44
2023-10-10T07:05:40.418Z,96789.91
2023-10-10T07:06:41.941Z,96791.53
2023-10-10T07:07:43.413Z,96794.72
2023-10-10T07:08:44.972Z,96791.81
2023-10-10T07:09:46.477Z,96789.69
2023-10-10T07:10:47.989Z,96788.38
2023-10-10T07:11:49.464Z,96792.34
2023-10-10T07:12:50.914Z,96784.91
2023-10-10T07:13:52.388Z,96786.25
2023-10-10T07:14:53.939Z,96789.16
2023-10-10T07:15:55.574Z,96785.47
2023-10-10T07:16:57.125Z,96787.56
2023-10-10T07:17:58.675Z,96786.28
2023-10-10T07:19:00.252Z,96781.25
2023-10-10T07:20:02.105Z,96786.78
2023-10-10T07:21:04.198Z,96785.50
2023-10-10T07:22:05.903Z,96783.66
2023-10-10T07:23:07.386Z,96782.34
2023-10-10T07:24:08.871Z,96788.97
2023-10-10T07:25:10.375Z,96784.72
2023-10-10T07:26:11.931Z,96789.22
2023-10-10T07:27:13.935Z,96785.00
2023-10-10T07:28:15.691Z,96790.53
2023-10-10T07:29:17.232Z,96795.06
2023-10-10T07:30:18.763Z,96798.50
2023-10-10T07:31:20.343Z,96800.63
2023-10-10T07:32:21.811Z,96801.41
2023-10-10T07:33:23.347Z,96802.47
2023-10-10T07:34:24.866Z,96799.00
2023-10-10T07:35:26.507Z,96804.31
2023-10-10T07:36:28.202Z,96802.72
2023-10-10T07:37:29.677Z,96800.88
2023-10-10T07:38:33.712Z,96796.63
2023-10-10T07:39:35.291Z,96795.78
2023-10-10T07:40:36.762Z,96797.63
2023-10-10T07:41:38.309Z,96800.28
2023-10-10T07:42:39.819Z,96802.13
2023-10-10T07:43:41.289Z,96801.38
2023-10-10T07:44:42.797Z,96802.13
2023-10-10T07:45:44.283Z,96797.59
2023-10-10T07:46:45.841Z,96797.59
2023-10-10T07:47:47.390Z,96798.38
2023-10-10T07:48:48.943Z,96804.47
2023-10-10T07:49:50.542Z,96797.53
2023-10-10T07:50:52.036Z,96804.16
2023-10-10T07:51:53.533Z,96805.19
2023-10-10T07:52:55.039Z,96804.09
2023-10-10T07:53:56.515Z,96813.34
2023-10-10T07:54:57.993Z,96810.38
2023-10-10T07:55:59.468Z,96807.69
2023-10-10T07:57:02.405Z,96816.94
2023-10-10T07:58:04.305Z,96812.44
2023-10-10T07:59:06.051Z,96812.16
2023-10-10T08:00:07.634Z,96804.91
2023-10-10T08:01:09.208Z,96808.06
2023-10-10T08:02:10.730Z,96819.19
2023-10-10T08:03:12.349Z,96814.34
2023-10-10T08:04:16.532Z,96812.94
2023-10-10T08:05:19.955Z,96811.84
2023-10-10T08:06:21.582Z,96820.31
2023-10-10T08:07:23.081Z,96818.91
2023-10-10T08:08:24.592Z,96816.72
2023-10-10T08:09:26.112Z,96819.84
2023-10-10T08:10:27.625Z,96814.50
2023-10-10T08:11:29.184Z,96827.72
2023-10-10T08:12:30.720Z,96821.28
2023-10-10T08:13:32.201Z,96824.91
2023-10-10T08:14:33.676Z,96827.25
2023-10-10T08:15:35.242Z,96828.50
2023-10-10T08:16:36.745Z,96822.53
2023-10-10T08:17:38.341Z,96834.44
2023-10-10T08:18:39.982Z,96827.97
2023-10-10T08:19:42.059Z,96824.97
2023-10-10T08:20:43.591Z,96826.25
2023-10-10T08:21:45.097Z,96826.66
2023-10-10T08:22:46.634Z,96822.88
2023-10-10T08:23:48.219Z,96828.63
2023-10-10T08:24:49.765Z,96828.81
2023-10-10T08:25:51.275Z,96831.09
2023-10-10T08:26:53.148Z,96827.00
2023-10-10T08:27:54.735Z,96824.75
2023-10-10T08:28:56.204Z,96826.00
2023-10-10T08:29:57.677Z,96826.44
2023-10-10T08:30:59.340Z,96831.09
2023-10-10T08:32:00.830Z,96833.13
2023-10-10T08:33:02.416Z,96827.13
2023-10-10T08:34:03.971Z,96832.91
2023-10-10T08:35:05.457Z,96830.34
2023-10-10T08:36:06.941Z,96825.16
2023-10-10T08:37:08.411Z,96822.88
2023-10-10T08:38:09.951Z,96824.88
2023-10-10T08:39:11.447Z,96819.66
2023-10-10T08:40:12.900Z,96821.66
2023-10-10T08:41:14.458Z,96823.97
2023-10-10T08:42:16.031Z,96823.28
2023-10-10T08:43:17.572Z,96814.56
2023-10-10T08:44:19.228Z,96817.34
2023-10-10T08:45:20.779Z,96812.38
2023-10-10T08:46:22.268Z,96809.81
2023-10-10T08:47:23.784Z,96813.69
2023-10-10T08:48:25.351Z,96810.31
2023-10-10T08:49:26.858Z,96816.81
2023-10-10T08:50:28.382Z,96817.72
2023-10-10T08:51:29.851Z,96811.66
2023-10-10T08:52:31.401Z,96821.94
2023-10-10T08:53:32.964Z,96813.22
2023-10-10T08:54:34.480Z,96814.38
2023-10-10T08:55:39.873Z,96816.31
2023-10-10T08:56:41.926Z,96821.72
2023-10-10T08:57:43.444Z,96820.50
2023-10-10T08:58:44.902Z,96815.28
2023-10-10T08:59:46.451Z,96818.00
2023-10-10T09:00:49.931Z,96811.13
2023-10-10T09:01:51.746Z,96815.72
2023-10-10T09:02:53.385Z,96814.97
2023-10-10T09:03:55.027Z,96807.31
2023-10-10T09:04:56.540Z,96819.16
2023-10-10T09:05:57.998Z,96819.50
2023-10-10T09:06:59.559Z,96811.81
2023-10-10T09:08:01.132Z,96817.56
2023-10-10T09:09:02.601Z,96817.13
2023-10-10T09:10:04.089Z,96812.09
2023-10-10T09:11:05.563Z,96811.94
2023-10-10T09:12:07.098Z,96814.97
2023-10-10T09:13:08.601Z,96809.94
2023-10-10T09:14:10.097Z,96814.84
2023-10-10T09:15:11.659Z,96809.34
2023-10-10T09:16:13.190Z,96820.69
2023-10-10T09:17:14.709Z,96814.41
2023-10-10T09:18:16.292Z,96818.03
2023-10-10T09:19:17.942Z,96811.47
2023-10-10T09:20:19.496Z,96815.56
2023-10-10T09:21:20.976Z,96816.84
2023-10-10T09:22:22.467Z,96809.72
2023-10-10T09:23:24.477Z,96814.16
2023-10-10T09:24:26.109Z,96819.97
2023-10-10T09:25:27.688Z,96821.75
2023-10-10T09:26:29.194Z,96821.88
2023-10-10T09:27:30.708Z,96820.16
2023-10-10T09:28:32.173Z,96813.38
2023-10-10T09:29:33.666Z,96814.63
2023-10-10T09:30:35.247Z,96823.63
2023-10-10T09:31:37.735Z,96801.84
2023-10-10T09:32:40.948Z,96811.16
2023-10-10T09:33:42.456Z,96806.91
2023-10-10T09:34:43.936Z,96807.69
2023-10-10T09:35:45.442Z,96814.97
2023-10-10T09:36:46.939Z,96810.69
2023-10-10T09:37:48.425Z,96802.63
2023-10-10T09:38:49.968Z,96812.88
2023-10-10T09:39:51.536Z,96806.75
2023-10-10T09:40:53.005Z,96805.97
2023-10-10T09:41:54.447Z,96807.38
2023-10-10T09:42:55.956Z,96798.84
2023-10-10T09:43:57.545Z,96801.53
2023-10-10T09:44:59.066Z,96802.66
2023-10-10T09:46:00.582Z,96799.97
2023-10-10T09:47:02.078Z,96798.38
2023-10-10T09:48:03.713Z,96799.19
2023-10-10T09:49:05.257Z,96803.72
2023-10-10T09:50:06.916Z,96802.66
2023-10-10T09:51:08.407Z,96799.19
2023-10-10T09:52:09.873Z,96798.84
2023-10-10T09:53:11.499Z,96798.06
2023-10-10T09:54:13.108Z,96803.72
2023-10-10T09:55:14.681Z,96803.25
2023-10-10T09:56:16.240Z,96796.66
2023-10-10T09:57:19.098Z,96801.84
2023-10-10T09:58:20.783Z,96807.84
2023-10-10T09:59:22.411Z,96807.69
2023-10-10T10:00:27.662Z,96800.72
2023-10-10T10:01:29.432Z,96809.13
2023-10-10T10:02:31.001Z,96802.94
2023-10-10T10:03:32.694Z,96809.13
2023-10-10T10:04:34.324Z,96809.44
2023-10-10T10:05:35.851Z,96804.06
2023-10-10T10:06:41.261Z,96811.31
2023-10-10T10:07:47.752Z,96803.59
2023-10-10T10:08:49.289Z,96804.38
2023-10-10T10:09:50.746Z,96808.94
2023-10-10T10:10:52.197Z,96812.72
2023-10-10T10:11:53.646Z,96810.03
2023-10-10T10:12:55.140Z,96803.13
2023-10-10T10:14:04.962Z,96813.50
2023-10-10T10:15:14.458Z,96809.25
2023-10-10T10:16:15.989Z,96804.69
2023-10-10T10:17:17.479Z,96796.94
2023-10-10T10:18:19.068Z,96808.00
2023-10-10T10:19:20.633Z,96814.16
2023-10-10T10:20:22.213Z,96804.84
2023-10-10T10:21:23.694Z,96810.22
2023-10-10T10:22:25.166Z,96816.66
2023-10-10T10:23:26.819Z,96816.66
2023-10-10T10:24:28.450Z,96814.28
2023-10-10T10:25:30.061Z,96816.97
2023-10-10T10:26:31.856Z,96810.81
2023-10-10T10:27:33.398Z,96808.16
2023-10-10T10:28:34.881Z,96814.63
2023-10-10T10:29:36.449Z,96807.06
2023-10-10T10:30:37.962Z,96812.41
2023-10-10T10:31:41.195Z,96813.19
2023-10-10T10:32:42.995Z,96819.34
2023-10-10T10:33:44.471Z,96816.66
2023-10-10T10:34:45.930Z,96817.13
2023-10-10T10:35:47.430Z,96809.09
2023-10-10T10:36:49.017Z,96817.91
2023-10-10T10:37:50.474Z,96817.91
2023-10-10T10:38:51.993Z,96814.47
2023-10-10T10:39:53.515Z,96816.06
2023-10-10T10:40:54.961Z,96808.00
2023-10-10T10:41:56.436Z,96804.97
2023-10-10T10:42:57.948Z,96811.94
2023-10-10T10:43:59.483Z,96803.91
2023-10-10T10:45:00.986Z,96807.66
2023-10-10T10:46:02.496Z,96814.94
2023-10-10T10:47:03.966Z,96810.69
2023-10-10T10:48:05.524Z,96806.88
2023-10-10T10:49:07.430Z,96802.31
2023-10-10T10:50:08.998Z,96801.53
2023-10-10T10:51:10.486Z,96798.53
2023-10-10T10:52:11.988Z,96793.63
2023-10-10T10:53:13.616Z,96795.53
2023-10-10T10:54:15.270Z,96808.94
2023-10-10T10:55:16.909Z,96802.78
2023-10-10T10:56:18.425Z,96798.22
2023-10-10T10:57:20.000Z,96802.16
2023-10-10T10:58:21.482Z,96796.31
2023-10-10T10:59:23.050Z,96794.13
2023-10-10T11:00:24.611Z,96799.16
2023-10-10T11:01:26.184Z,96801.06
2023-10-10T11:02:27.758Z,96801.84
2023-10-10T11:03:29.385Z,96791.91
2023-10-10T11:04:30.996Z,96798.88
2023-10-10T11:05:32.617Z,96796.19
2023-10-10T11:06:34.126Z,96791.28
2023-10-10T11:07:35.587Z,96792.06
2023-10-10T11:08:46.476Z,96793.97
2023-10-10T11:09:56.332Z,96794.44
2023-10-10T11:10:57.808Z,96796.31
2023-10-10T11:11:59.339Z,96795.22
2023-10-10T11:13:00.845Z,96793.63
2023-10-10T11:14:02.446Z,96787.19
2023-10-10T11:15:03.919Z,96795.22
2023-10-10T11:16:05.622Z,96790.63
2023-10-10T11:17:07.124Z,96788.75
2023-10-10T11:18:08.718Z,96791.91
2023-10-10T11:19:10.350Z,96788.13
2023-10-10T11:20:11.927Z,96784.00
2023-10-10T11:21:13.437Z,96783.69
2023-10-10T11:22:14.909Z,96786.06
2023-10-10T11:23:16.389Z,96782.28
2023-10-10T11:24:17.985Z,96781.97
2023-10-10T11:25:19.509Z,96785.13
2023-10-10T11:26:21.123Z,96794.75
2023-10-10T11:27:22.672Z,96785.91
2023-10-10T11:28:24.120Z,96792.84
2023-10-10T11:29:25.669Z,96781.00
2023-10-10T11:30:27.128Z,96786.38
2023-10-10T11:31:28.697Z,96781.81
2023-10-10T11:32:30.299Z,96778.00
2023-10-10T11:33:31.990Z,96780.38
2023-10-10T11:34:33.579Z,96781.94
2023-10-10T11:35:35.054Z,96773.91
2023-10-10T11:36:36.550Z,96772.03
2023-10-10T11:37:38.006Z,96772.81
2023-10-10T11:38:39.494Z,96770.13
2023-10-10T11:39:40.993Z,96769.81
2023-10-10T11:40:42.465Z,96767.13
2023-10-10T11:41:44.031Z,96764.13
2023-10-10T11:42:45.507Z,96761.09
2023-10-10T11:43:46.983Z,96762.38
2023-10-10T11:44:48.551Z,96759.34
2023-10-10T11:45:50.171Z,96755.59
2023-10-10T11:46:51.710Z,96760.63
2023-10-10T11:47:53.254Z,96748.78
2023-10-10T11:48:54.774Z,96755.75
2023-10-10T11:49:56.321Z,96741.69
2023-10-10T11:50:57.892Z,96752.91
2023-10-10T11:51:59.487Z,96752.91
2023-10-10T11:53:00.968Z,96753.72
2023-10-10T11:54:02.482Z,96751.50
2023-10-10T11:55:03.953Z,96751.81
2023-10-10T11:56:05.437Z,96751.50
2023-10-10T11:57:06.904Z,96751.50
2023-10-10T11:58:08.424Z,96750.38
2023-10-10T11:59:09.907Z,96749.28
2023-10-10T12:00:26.667Z,96758.13
2023-10-10T12:01:29.351Z,96744.38
2023-10-10T12:02:31.189Z,96746.72
2023-10-10T12:03:32.874Z,96748.63
2023-10-10T12:04:34.431Z,96749.41
2023-10-10T12:05:35.936Z,96753.22
2023-10-10T12:06:37.578Z,96754.47